Flight Track Log - Related Links

Times and Time Zones

All times are in EST time to prevent confusion due to time zone crossing. See the EJA829P flight status page for this flight to view local times or setup timezone preferences in your user account.

Time Position Orientation Groundspeed Altitude Reporting Facility
EST Latitude Longitude Course Direction KTS MPH feet Rate Location/Type
Fri 10:42:29 AM 38.0031 -84.6406 181° South 174 200 3,000  Level Indianapolis Center
Fri 10:43:31 AM 37.9356 -84.6417 181° South 279 321 6,000 3,194 Climbing Indianapolis Center
Fri 10:44:33 AM 37.8558 -84.6083 162° South 301 346 9,600 3,484 Climbing Indianapolis Center
Fri 10:45:35 AM 37.7647 -84.5744 164° South 334 384 13,200 3,581 Climbing Indianapolis Center
Fri 10:46:37 AM 37.6561 -84.5339 164° South 346 398 17,000 3,097 Climbing Indianapolis Center
Fri 10:47:39 AM 37.5600 -84.4994 164° South 356 410 19,600 2,177 Climbing Indianapolis Center
Fri 10:48:41 AM 37.4603 -84.4614 163° South 370 426 21,500 1,597 Climbing Indianapolis Center
Fri 10:49:43 AM 37.3483 -84.4200 164° South 411 473 22,900 1,403 Climbing Indianapolis Center
Fri 10:50:45 AM 37.2319 -84.3911 169° South 423 487 24,400 1,984 Climbing Indianapolis Center
Fri 10:51:47 AM 37.0994 -84.3942 181° South 407 468 27,000 2,468 Climbing Indianapolis Center
Fri 10:52:49 AM 36.9883 -84.3944 180° South 401 461 29,500 2,323 Climbing Indianapolis Center
Fri 10:53:51 AM 36.8836 -84.3953 180° South 382 440 31,800 2,226 Climbing Indianapolis Center
Fri 10:54:53 AM 36.7814 -84.3975 181° South 370 426 34,100 1,742 Climbing Indianapolis Center
Fri 10:55:55 AM 36.6808 -84.3986 181° South 364 419 35,400 919 Climbing Indianapolis Center
Fri 10:56:57 AM 36.5594 -84.3997 180° South 371 427 36,000 293 Climbing Indianapolis Center
Fri 10:57:58 AM 36.4433 -84.4022 181° South 402 463 36,000 341 Level Indianapolis Center
Fri 10:59:00 AM 36.3233 -84.4022 180° South 421 484 36,700 871 Climbing Indianapolis Center
Fri 11:00:02 AM 36.2083 -84.4036 181° South 416 479 37,800 1,016 Climbing Indianapolis Center
Fri 11:01:04 AM 36.0956 -84.4050 181° South 407 468 38,800 968 Climbing Indianapolis Center
Fri 11:02:06 AM 35.9842 -84.4053 180° South 398 458 39,800 968 Climbing Indianapolis Center
Fri 11:03:08 AM 35.8761 -84.4075 181° South 387 445 40,800 567 Climbing Indianapolis Center
Fri 11:04:13 AM 35.7469 -84.4097 181° South 392 451 41,000 96 Climbing Atlanta Center
Fri 11:05:13 AM 35.6342 -84.4117 181° South 392 451 41,000  Level Atlanta Center
Fri 11:06:13 AM 35.5236 -84.4139 181° South 399 459 41,000  Level Atlanta Center
Fri 11:07:13 AM 35.4089 -84.4158 181° South 409 471 41,000  Level Atlanta Center
Fri 11:08:13 AM 35.3067 -84.4153 180° South 409 471 41,000  Level Atlanta Center
Fri 11:09:13 AM 35.1919 -84.4175 181° South 409 471 41,000  Level Atlanta Center
Fri 11:10:13 AM 35.0792 -84.4219 182° South 409 471 41,000  Level Atlanta Center
Fri 11:11:13 AM 34.9625 -84.4214 180° South 414 476 41,000  Level Atlanta Center
Fri 11:12:13 AM 34.8433 -84.4233 181° South 404 465 41,000  Level Atlanta Center
Fri 11:13:13 AM 34.7286 -84.4206 179° South 409 471 41,000  Level Atlanta Center
Fri 11:14:13 AM 34.6161 -84.4200 180° South 409 471 41,000  Level Atlanta Center
Fri 11:15:13 AM 34.5033 -84.4244 182° South 409 471 41,000  Level Atlanta Center
Fri 11:16:13 AM 34.3906 -84.4264 181° South 402 463 41,000  Level Atlanta Center
Fri 11:17:13 AM 34.2903 -84.4286 181° South 402 463 41,000  Level Atlanta Center
Fri 11:18:13 AM 34.1797 -84.4281 180° South 402 463 41,000  Level Atlanta Center
Fri 11:19:13 AM 34.0650 -84.4325 182° South 409 471 41,000  Level Atlanta Center
Fri 11:20:13 AM 33.9586 -84.4344 181° South 401 461 41,000  Level Atlanta Center
Fri 11:21:13 AM 33.8478 -84.4339 180° South 396 456 41,000  Level Atlanta Center
Fri 11:22:13 AM 33.7372 -84.4361 181° South 396 456 41,000  Level Atlanta Center
Fri 11:23:13 AM 33.6308 -84.4381 181° South 396 456 41,000  Level Atlanta Center
Fri 11:24:13 AM 33.5078 -84.4325 178° South 396 456 41,000  Level Atlanta Center
Fri 11:25:13 AM 33.4094 -84.4319 180° South 396 456 41,000  Level Atlanta Center
Fri 11:26:13 AM 33.3011 -84.4314 180° South 396 456 41,000  Level Atlanta Center
Fri 11:27:13 AM 33.1925 -84.4311 180° South 396 456 41,000  Level Atlanta Center
Fri 11:28:13 AM 33.0797 -84.4281 179° South 401 461 41,000  Level Atlanta Center
Fri 11:29:13 AM 32.9711 -84.4250 179° South 395 455 41,000  Level Atlanta Center
Fri 11:30:13 AM 32.8606 -84.4222 179° South 401 461 41,000  Level Atlanta Center
Fri 11:31:13 AM 32.7417 -84.4192 179° South 401 461 41,000  Level Atlanta Center
Fri 11:32:13 AM 32.6311 -84.4161 179° South 401 461 41,000  Level Atlanta Center
Fri 11:33:13 AM 32.5203 -84.4158 180° South 401 461 41,000  Level Atlanta Center
Fri 11:34:13 AM 32.4119 -84.4128 179° South 401 461 41,000  Level Atlanta Center
Fri 11:35:13 AM 32.3011 -84.4122 180° South 401 461 41,000  Level Atlanta Center
Fri 11:37:43 AM 32.0303 -84.4047 179° South 398 458 41,000  Level Jacksonville Center
Fri 11:38:43 AM 31.9217 -84.4028 179° South 398 458 41,000  Level Jacksonville Center
Fri 11:39:42 AM 31.8131 -84.4011 179° South 398 458 41,000  Level Jacksonville Center
Fri 11:40:43 AM 31.7128 -84.4019 180° South 403 464 41,000  Level Jacksonville Center
Fri 11:41:43 AM 31.6022 -84.3975 178° South 403 464 41,000  Level Jacksonville Center
Fri 11:42:44 AM 31.4936 -84.3933 178° South 403 464 41,000  Level Jacksonville Center
Fri 11:43:42 AM 31.3811 -84.3917 179° South 403 464 41,000 50 Level Jacksonville Center
Fri 11:44:43 AM 31.2703 -84.3897 179° South 403 464 41,100  Climbing Jacksonville Center
Fri 11:45:44 AM 31.1597 -84.3881 179° South 403 464 41,000 -50 Descending Jacksonville Center
Fri 11:46:44 AM 31.0492 -84.3864 179° South 403 464 41,000  Level Jacksonville Center
Fri 11:47:44 AM 30.9383 -84.3822 178° South 403 464 41,000  Level Jacksonville Center
Fri 11:48:42 AM 30.8258 -84.3803 179° South 403 464 41,000  Level Jacksonville Center
Fri 11:49:42 AM 30.7172 -84.3761 178° South 403 464 41,000  Level Jacksonville Center
Fri 11:50:42 AM 30.6086 -84.3747 179° South 403 464 41,000  Level Jacksonville Center
Fri 11:51:43 AM 30.4942 -84.3342 163° South 403 464 41,000  Level Jacksonville Center
Fri 11:52:43 AM 30.3886 -84.2653 151° Southeast 405 466 41,000  Level Jacksonville Center
Fri 11:53:44 AM 30.2869 -84.1989 151° Southeast 416 479 41,000  Level Jacksonville Center
Fri 11:54:42 AM 30.1956 -84.1400 151° Southeast 422 486 41,000  Level Jacksonville Center
Fri 11:55:42 AM 30.0878 -84.0761 153° Southeast 427 491 41,000  Level Jacksonville Center
Fri 11:56:43 AM 29.9794 -84.0339 161° South 427 491 41,000  Level Jacksonville Center
Fri 11:57:43 AM 29.8672 -83.9894 161° South 421 484 41,000  Level Jacksonville Center
Fri 11:58:42 AM 29.7569 -83.9453 161° South 421 484 41,000  Level Jacksonville Center
Fri 11:59:42 AM 29.6444 -83.9011 161° South 421 484 41,000  Level Jacksonville Center
Fri 12:00:43 PM 29.5322 -83.8569 161° South 427 491 41,000  Level Jacksonville Center
Fri 12:01:44 PM 29.4197 -83.8106 160° South 427 491 41,000  Level Jacksonville Center
Fri 12:02:44 PM 29.3075 -83.7667 161° South 427 491 41,000  Level Jacksonville Center
Fri 12:03:44 PM 29.1803 -83.7178 161° South 427 491 41,000 -254 Level Jacksonville Center
Fri 12:04:42 PM 29.0681 -83.6717 160° South 433 498 40,500 -908 Descending Jacksonville Center
Fri 12:05:43 PM 28.9597 -83.6306 162° South 426 490 39,200 -1,045 Descending Jacksonville Center
Fri 12:08:03 PM 28.7103 -83.5336 161° South 412 474 37,000 -660 Descending Miami Center
Fri 12:09:03 PM 28.6000 -83.4892 161° South 423 487 37,000  Level Miami Center
Fri 12:10:03 PM 28.4872 -83.4447 161° South 423 487 37,000 -200 Level Miami Center
Fri 12:11:03 PM 28.3747 -83.4003 161° South 428 493 36,600 -1,000 Descending Miami Center
Fri 12:12:03 PM 28.2447 -83.3692 168° South 433 498 35,000 -1,300 Descending Miami Center
Fri 12:13:03 PM 28.1278 -83.3719 181° South 428 493 34,000 -1,650 Descending Miami Center
Fri 12:14:03 PM 28.0111 -83.3697 179° South 421 484 31,700 -2,300 Descending Miami Center
Fri 12:15:03 PM 27.8883 -83.3675 179° South 421 484 29,400 -2,300 Descending Miami Center
Fri 12:16:03 PM 27.7653 -83.3650 179° South 431 496 27,100 -2,150 Descending Miami Center
Fri 12:17:03 PM 27.6544 -83.3261 163° South 428 493 25,100 -1,650 Descending Miami Center
Fri 12:18:03 PM 27.5664 -83.2414 140° Southeast 410 472 23,800 -1,250 Descending Miami Center
Fri 12:19:03 PM 27.4764 -83.1569 140° Southeast 410 472 22,600 -1,250 Descending Miami Center
Fri 12:20:03 PM 27.3881 -83.0728 140° Southeast 417 480 21,300 -1,250 Descending Miami Center
Fri 12:21:03 PM 27.2997 -82.9908 140° Southeast 422 486 20,100 -1,150 Descending Miami Center
Fri 12:22:03 PM 27.2197 -82.9142 140° Southeast 403 464 19,000 -1,100 Descending Miami Center
Fri 12:23:03 PM 27.1372 -82.8400 141° Southeast 390 449 17,900 -1,050 Descending Miami Center
Fri 12:24:03 PM 27.0569 -82.7636 140° Southeast 380 437 16,900 -1,100 Descending Miami Center
Fri 12:25:03 PM 26.9764 -82.6897 141° Southeast 380 437 15,700 -1,150 Descending Miami Center
Fri 12:26:03 PM 26.8958 -82.6158 141° Southeast 380 437 14,600 -1,100 Descending Miami Center
Fri 12:27:03 PM 26.8172 -82.5422 140° Southeast 380 437 13,500 -1,000 Descending Miami Center
Fri 12:28:03 PM 26.7489 -82.4783 140° Southeast 365 420 12,600 -950 Descending Miami Center
Fri 12:29:03 PM 26.6783 -82.4147 141° Southeast 354 407 11,600 -1,250 Descending Miami Center
Fri 12:30:03 PM 26.6075 -82.3531 142° Southeast 338 389 10,100 -1,650 Descending Miami Center
Fri 12:31:03 PM 26.5322 -82.3008 148° Southeast 302 348 8,300 -1,600 Descending Miami Center
Fri 12:32:03 PM 26.4653 -82.2492 145° Southeast 288 331 6,900 -1,450 Descending Miami Center
Fri 12:33:03 PM 26.4003 -82.2022 147° Southeast 283 326 5,400 -1,400 Descending Miami Center
Fri 12:34:03 PM 26.3414 -82.1578 146° Southeast 270 311 4,100 -1,400 Descending Miami Center
Fri 12:35:03 PM 26.2781 -82.1156 149° Southeast 270 311 2,600 -1,500 Descending Miami Center
Fri 12:37:00 PM 26.1068 -81.9867 156° South  Level FlightAware Approximate
Fri 12:44:00 PM 26.1524 -81.7756 66° East  Level Estimated
Fri 12:45:00 PM 26.1524 -81.7756 66° East  Level Estimated
Fri 12:46:00 PM 26.1524 -81.7756 66° East  Level Estimated
Fri 12:47:00 PM 26.1524 -81.7756 66° East  Level Estimated
Fri 12:48:00 PM 26.1524 -81.7756 66° East  Level Estimated
Fri 12:49:00 PM 26.1524 -81.7756 66° East  Level Estimated
Fri 12:50:00 PM 26.1524 -81.7756 66° East  Level Estimated
Fri 12:51:00 PM 26.1524 -81.7756 66° East  Level Estimated

Login

Don't have an account? Register now (free) for customized features, flight alerts, and more!